sensor_id;sensor_type;location;lat;lon;timestamp;P1;durP1;ratioP1;P2;durP2;ratioP2
19219;SDS011;9744;49.364;7.484;2023-05-31T00:02:16;7.75;;;1.92;;
19219;SDS011;9744;49.364;7.484;2023-05-31T00:04:44;7.55;;;1.75;;
19219;SDS011;9744;49.364;7.484;2023-05-31T00:07:11;8.20;;;2.40;;
19219;SDS011;9744;49.364;7.484;2023-05-31T00:09:41;4.60;;;1.58;;
19219;SDS011;9744;49.364;7.484;2023-05-31T00:12:12;8.15;;;2.00;;
19219;SDS011;9744;49.364;7.484;2023-05-31T00:14:39;6.30;;;1.70;;
19219;SDS011;9744;49.364;7.484;2023-05-31T00:17:07;5.90;;;2.00;;
19219;SDS011;9744;49.364;7.484;2023-05-31T00:19:34;3.85;;;1.95;;
19219;SDS011;9744;49.364;7.484;2023-05-31T00:22:01;8.73;;;2.22;;
19219;SDS011;9744;49.364;7.484;2023-05-31T00:24:32;5.63;;;1.98;;
19219;SDS011;9744;49.364;7.484;2023-05-31T00:27:00;11.30;;;2.17;;
19219;SDS011;9744;49.364;7.484;2023-05-31T00:32:27;10.63;;;2.30;;
19219;SDS011;9744;49.364;7.484;2023-05-31T00:34:54;4.82;;;1.98;;
19219;SDS011;9744;49.364;7.484;2023-05-31T00:37:22;7.40;;;2.30;;
19219;SDS011;9744;49.364;7.484;2023-05-31T00:39:49;5.13;;;2.00;;
19219;SDS011;9744;49.364;7.484;2023-05-31T00:42:17;5.85;;;1.73;;
19219;SDS011;9744;49.364;7.484;2023-05-31T00:44:44;4.60;;;2.08;;
19219;SDS011;9744;49.364;7.484;2023-05-31T00:47:14;9.35;;;2.17;;
19219;SDS011;9744;49.364;7.484;2023-05-31T00:49:42;6.10;;;1.85;;
19219;SDS011;9744;49.364;7.484;2023-05-31T00:52:10;8.60;;;2.13;;
19219;SDS011;9744;49.364;7.484;2023-05-31T00:54:38;7.40;;;2.00;;
19219;SDS011;9744;49.364;7.484;2023-05-31T00:57:05;4.43;;;1.90;;
19219;SDS011;9744;49.364;7.484;2023-05-31T00:59:35;9.75;;;2.20;;
19219;SDS011;9744;49.364;7.484;2023-05-31T01:02:03;8.85;;;2.53;;
19219;SDS011;9744;49.364;7.484;2023-05-31T01:04:33;5.45;;;2.13;;
19219;SDS011;9744;49.364;7.484;2023-05-31T01:07:00;5.97;;;1.83;;
19219;SDS011;9744;49.364;7.484;2023-05-31T01:09:28;8.60;;;2.10;;
19219;SDS011;9744;49.364;7.484;2023-05-31T01:11:58;9.20;;;2.30;;
19219;SDS011;9744;49.364;7.484;2023-05-31T01:14:38;4.95;;;2.08;;
19219;SDS011;9744;49.364;7.484;2023-05-31T01:17:13;6.25;;;2.25;;
19219;SDS011;9744;49.364;7.484;2023-05-31T01:19:52;9.45;;;2.42;;
19219;SDS011;9744;49.364;7.484;2023-05-31T01:22:31;5.28;;;1.83;;
19219;SDS011;9744;49.364;7.484;2023-05-31T01:25:13;5.72;;;2.42;;
19219;SDS011;9744;49.364;7.484;2023-05-31T01:27:54;7.90;;;2.15;;
19219;SDS011;9744;49.364;7.484;2023-05-31T01:30:25;7.82;;;2.13;;
19219;SDS011;9744;49.364;7.484;2023-05-31T01:32:54;5.25;;;2.13;;
19219;SDS011;9744;49.364;7.484;2023-05-31T01:35:24;5.95;;;2.25;;
19219;SDS011;9744;49.364;7.484;2023-05-31T01:37:51;9.10;;;2.50;;
19219;SDS011;9744;49.364;7.484;2023-05-31T01:40:18;7.45;;;2.50;;
19219;SDS011;9744;49.364;7.484;2023-05-31T01:42:46;9.32;;;2.70;;
19219;SDS011;9744;49.364;7.484;2023-05-31T01:45:17;4.63;;;2.08;;
19219;SDS011;9744;49.364;7.484;2023-05-31T01:47:47;6.82;;;2.97;;
19219;SDS011;9744;49.364;7.484;2023-05-31T01:50:16;7.30;;;2.80;;
19219;SDS011;9744;49.364;7.484;2023-05-31T01:52:45;10.43;;;2.60;;
19219;SDS011;9744;49.364;7.484;2023-05-31T01:55:12;9.20;;;2.78;;
19219;SDS011;9744;49.364;7.484;2023-05-31T01:57:41;5.70;;;2.72;;
19219;SDS011;9744;49.364;7.484;2023-05-31T02:04:04;8.95;;;2.13;;
19219;SDS011;9744;49.364;7.484;2023-05-31T02:06:34;7.07;;;2.63;;
19219;SDS011;9744;49.364;7.484;2023-05-31T02:09:02;8.38;;;3.15;;
19219;SDS011;9744;49.364;7.484;2023-05-31T02:11:30;10.07;;;2.72;;
19219;SDS011;9744;49.364;7.484;2023-05-31T02:13:57;6.55;;;2.42;;
19219;SDS011;9744;49.364;7.484;2023-05-31T02:16:24;8.65;;;2.70;;
19219;SDS011;9744;49.364;7.484;2023-05-31T02:18:51;7.38;;;3.42;;
19219;SDS011;9744;49.364;7.484;2023-05-31T02:21:23;9.32;;;2.55;;
19219;SDS011;9744;49.364;7.484;2023-05-31T02:23:50;7.57;;;2.70;;
19219;SDS011;9744;49.364;7.484;2023-05-31T02:26:17;8.48;;;2.67;;
19219;SDS011;9744;49.364;7.484;2023-05-31T02:28:45;5.85;;;2.58;;
19219;SDS011;9744;49.364;7.484;2023-05-31T02:31:12;6.57;;;2.67;;
19219;SDS011;9744;49.364;7.484;2023-05-31T02:33:40;5.95;;;2.60;;
19219;SDS011;9744;49.364;7.484;2023-05-31T02:36:08;8.35;;;3.20;;
19219;SDS011;9744;49.364;7.484;2023-05-31T02:38:37;6.22;;;2.45;;
19219;SDS011;9744;49.364;7.484;2023-05-31T02:41:04;9.27;;;3.53;;
19219;SDS011;9744;49.364;7.484;2023-05-31T02:43:31;7.25;;;2.30;;
19219;SDS011;9744;49.364;7.484;2023-05-31T02:45:59;6.53;;;2.25;;
19219;SDS011;9744;49.364;7.484;2023-05-31T02:48:27;6.35;;;2.22;;
19219;SDS011;9744;49.364;7.484;2023-05-31T02:50:55;6.95;;;2.40;;
19219;SDS011;9744;49.364;7.484;2023-05-31T02:53:47;9.25;;;2.38;;
19219;SDS011;9744;49.364;7.484;2023-05-31T02:56:19;8.13;;;2.20;;
19219;SDS011;9744;49.364;7.484;2023-05-31T02:59:05;6.45;;;2.47;;
19219;SDS011;9744;49.364;7.484;2023-05-31T03:01:39;5.47;;;2.58;;
19219;SDS011;9744;49.364;7.484;2023-05-31T03:04:19;9.23;;;2.90;;
19219;SDS011;9744;49.364;7.484;2023-05-31T03:06:48;7.38;;;2.47;;
19219;SDS011;9744;49.364;7.484;2023-05-31T03:09:17;6.57;;;2.42;;
19219;SDS011;9744;49.364;7.484;2023-05-31T03:11:45;9.70;;;3.30;;
19219;SDS011;9744;49.364;7.484;2023-05-31T03:14:12;17.13;;;2.20;;
19219;SDS011;9744;49.364;7.484;2023-05-31T03:16:44;6.75;;;2.58;;
19219;SDS011;9744;49.364;7.484;2023-05-31T03:19:12;7.95;;;2.70;;
19219;SDS011;9744;49.364;7.484;2023-05-31T03:21:41;8.20;;;2.55;;
19219;SDS011;9744;49.364;7.484;2023-05-31T03:24:09;9.57;;;2.70;;
19219;SDS011;9744;49.364;7.484;2023-05-31T03:26:37;6.63;;;2.33;;
19219;SDS011;9744;49.364;7.484;2023-05-31T03:29:05;9.48;;;2.60;;
19219;SDS011;9744;49.364;7.484;2023-05-31T03:31:35;8.60;;;2.10;;
19219;SDS011;9744;49.364;7.484;2023-05-31T03:34:02;4.93;;;2.05;;
19219;SDS011;9744;49.364;7.484;2023-05-31T03:40:32;6.75;;;1.95;;
19219;SDS011;9744;49.364;7.484;2023-05-31T03:43:01;7.97;;;3.42;;
19219;SDS011;9744;49.364;7.484;2023-05-31T03:45:28;9.05;;;2.40;;
19219;SDS011;9744;49.364;7.484;2023-05-31T03:47:55;8.57;;;2.55;;
19219;SDS011;9744;49.364;7.484;2023-05-31T03:50:23;7.78;;;3.08;;
19219;SDS011;9744;49.364;7.484;2023-05-31T03:52:50;7.13;;;2.42;;
19219;SDS011;9744;49.364;7.484;2023-05-31T03:55:17;6.55;;;2.97;;
19219;SDS011;9744;49.364;7.484;2023-05-31T03:57:58;10.88;;;2.25;;
19219;SDS011;9744;49.364;7.484;2023-05-31T04:00:27;9.77;;;2.53;;
19219;SDS011;9744;49.364;7.484;2023-05-31T04:02:54;7.32;;;2.70;;
19219;SDS011;9744;49.364;7.484;2023-05-31T04:05:22;11.52;;;2.83;;
19219;SDS011;9744;49.364;7.484;2023-05-31T04:07:49;7.78;;;3.03;;
19219;SDS011;9744;49.364;7.484;2023-05-31T04:10:16;7.15;;;2.33;;
19219;SDS011;9744;49.364;7.484;2023-05-31T04:12:44;6.18;;;2.25;;
19219;SDS011;9744;49.364;7.484;2023-05-31T04:15:11;9.38;;;2.97;;
19219;SDS011;9744;49.364;7.484;2023-05-31T04:17:39;10.05;;;2.33;;
19219;SDS011;9744;49.364;7.484;2023-05-31T04:24:07;5.07;;;2.47;;
19219;SDS011;9744;49.364;7.484;2023-05-31T04:26:34;8.35;;;3.17;;
19219;SDS011;9744;49.364;7.484;2023-05-31T04:29:03;9.18;;;2.47;;
19219;SDS011;9744;49.364;7.484;2023-05-31T04:39:41;6.72;;;3.03;;
19219;SDS011;9744;49.364;7.484;2023-05-31T04:42:18;10.07;;;3.47;;
19219;SDS011;9744;49.364;7.484;2023-05-31T04:45:02;9.77;;;3.30;;
19219;SDS011;9744;49.364;7.484;2023-05-31T04:47:44;10.20;;;3.53;;
19219;SDS011;9744;49.364;7.484;2023-05-31T04:50:14;9.55;;;3.95;;
19219;SDS011;9744;49.364;7.484;2023-05-31T04:53:02;12.13;;;6.80;;
19219;SDS011;9744;49.364;7.484;2023-05-31T04:58:54;13.48;;;5.40;;
19219;SDS011;9744;49.364;7.484;2023-05-31T05:01:25;13.80;;;5.50;;
19219;SDS011;9744;49.364;7.484;2023-05-31T05:04:41;13.95;;;4.68;;
19219;SDS011;9744;49.364;7.484;2023-05-31T05:07:24;12.93;;;5.35;;
19219;SDS011;9744;49.364;7.484;2023-05-31T05:09:55;15.20;;;4.63;;
19219;SDS011;9744;49.364;7.484;2023-05-31T05:19:28;10.77;;;2.85;;
19219;SDS011;9744;49.364;7.484;2023-05-31T05:25:27;7.82;;;3.20;;
19219;SDS011;9744;49.364;7.484;2023-05-31T05:28:45;8.85;;;3.15;;
19219;SDS011;9744;49.364;7.484;2023-05-31T05:31:13;10.20;;;3.00;;
19219;SDS011;9744;49.364;7.484;2023-05-31T05:33:44;13.15;;;3.63;;
19219;SDS011;9744;49.364;7.484;2023-05-31T05:36:18;10.38;;;3.55;;
19219;SDS011;9744;49.364;7.484;2023-05-31T05:38:50;7.72;;;3.25;;
19219;SDS011;9744;49.364;7.484;2023-05-31T05:41:23;7.63;;;2.90;;
19219;SDS011;9744;49.364;7.484;2023-05-31T05:43:51;9.07;;;3.08;;
19219;SDS011;9744;49.364;7.484;2023-05-31T05:46:19;9.95;;;3.58;;
19219;SDS011;9744;49.364;7.484;2023-05-31T05:52:42;5.95;;;2.60;;
19219;SDS011;9744;49.364;7.484;2023-05-31T05:55:10;9.85;;;2.63;;
19219;SDS011;9744;49.364;7.484;2023-05-31T05:57:38;12.68;;;2.80;;
19219;SDS011;9744;49.364;7.484;2023-05-31T06:00:40;11.35;;;3.45;;
19219;SDS011;9744;49.364;7.484;2023-05-31T06:03:32;11.77;;;3.10;;
19219;SDS011;9744;49.364;7.484;2023-05-31T06:06:06;8.43;;;3.25;;
19219;SDS011;9744;49.364;7.484;2023-05-31T06:08:36;13.93;;;3.70;;
19219;SDS011;9744;49.364;7.484;2023-05-31T06:11:04;9.88;;;3.58;;
19219;SDS011;9744;49.364;7.484;2023-05-31T06:13:31;7.60;;;2.90;;
19219;SDS011;9744;49.364;7.484;2023-05-31T06:16:05;7.30;;;2.90;;
19219;SDS011;9744;49.364;7.484;2023-05-31T06:18:34;10.95;;;2.88;;
19219;SDS011;9744;49.364;7.484;2023-05-31T06:21:03;14.20;;;3.30;;
19219;SDS011;9744;49.364;7.484;2023-05-31T06:23:32;8.18;;;2.42;;
19219;SDS011;9744;49.364;7.484;2023-05-31T06:26:01;9.75;;;3.15;;
19219;SDS011;9744;49.364;7.484;2023-05-31T06:32:25;5.72;;;2.53;;
19219;SDS011;9744;49.364;7.484;2023-05-31T06:34:53;10.75;;;2.88;;
19219;SDS011;9744;49.364;7.484;2023-05-31T06:37:20;7.97;;;2.72;;
19219;SDS011;9744;49.364;7.484;2023-05-31T06:39:49;9.38;;;2.22;;
19219;SDS011;9744;49.364;7.484;2023-05-31T06:42:23;8.90;;;2.22;;
19219;SDS011;9744;49.364;7.484;2023-05-31T06:44:54;9.95;;;4.15;;
19219;SDS011;9744;49.364;7.484;2023-05-31T06:47:58;11.07;;;3.28;;
19219;SDS011;9744;49.364;7.484;2023-05-31T06:50:44;8.68;;;3.08;;
19219;SDS011;9744;49.364;7.484;2023-05-31T06:53:40;6.78;;;3.58;;
19219;SDS011;9744;49.364;7.484;2023-05-31T06:56:15;6.80;;;2.67;;
19219;SDS011;9744;49.364;7.484;2023-05-31T06:58:45;7.38;;;2.47;;
19219;SDS011;9744;49.364;7.484;2023-05-31T07:01:13;8.50;;;2.83;;
19219;SDS011;9744;49.364;7.484;2023-05-31T07:07:35;7.35;;;3.13;;
19219;SDS011;9744;49.364;7.484;2023-05-31T07:10:04;8.85;;;1.90;;
19219;SDS011;9744;49.364;7.484;2023-05-31T07:12:37;8.57;;;2.42;;
19219;SDS011;9744;49.364;7.484;2023-05-31T07:15:18;7.32;;;2.20;;
19219;SDS011;9744;49.364;7.484;2023-05-31T07:17:58;5.55;;;2.10;;
19219;SDS011;9744;49.364;7.484;2023-05-31T07:20:26;3.38;;;1.90;;
19219;SDS011;9744;49.364;7.484;2023-05-31T07:22:54;7.00;;;2.05;;
19219;SDS011;9744;49.364;7.484;2023-05-31T07:25:21;9.57;;;2.38;;
19219;SDS011;9744;49.364;7.484;2023-05-31T07:28:15;13.48;;;2.00;;
19219;SDS011;9744;49.364;7.484;2023-05-31T07:30:52;6.93;;;3.72;;
19219;SDS011;9744;49.364;7.484;2023-05-31T07:37:18;7.75;;;2.75;;
19219;SDS011;9744;49.364;7.484;2023-05-31T07:39:51;13.20;;;4.47;;
19219;SDS011;9744;49.364;7.484;2023-05-31T07:42:34;7.57;;;3.15;;
19219;SDS011;9744;49.364;7.484;2023-05-31T07:45:04;7.20;;;2.30;;
19219;SDS011;9744;49.364;7.484;2023-05-31T07:47:34;7.07;;;3.03;;
19219;SDS011;9744;49.364;7.484;2023-05-31T07:50:02;6.65;;;2.83;;
19219;SDS011;9744;49.364;7.484;2023-05-31T07:52:30;6.63;;;2.17;;
19219;SDS011;9744;49.364;7.484;2023-05-31T07:54:57;6.05;;;2.60;;
19219;SDS011;9744;49.364;7.484;2023-05-31T07:57:24;10.80;;;2.30;;
19219;SDS011;9744;49.364;7.484;2023-05-31T07:59:51;7.57;;;2.10;;
19219;SDS011;9744;49.364;7.484;2023-05-31T08:02:18;9.32;;;3.88;;
19219;SDS011;9744;49.364;7.484;2023-05-31T08:04:47;6.65;;;2.53;;
19219;SDS011;9744;49.364;7.484;2023-05-31T08:07:15;9.95;;;3.15;;
19219;SDS011;9744;49.364;7.484;2023-05-31T08:09:42;10.65;;;3.05;;
19219;SDS011;9744;49.364;7.484;2023-05-31T08:12:10;4.55;;;2.50;;
19219;SDS011;9744;49.364;7.484;2023-05-31T08:14:37;6.65;;;2.80;;
19219;SDS011;9744;49.364;7.484;2023-05-31T08:17:04;11.80;;;2.47;;
19219;SDS011;9744;49.364;7.484;2023-05-31T08:19:31;4.13;;;1.90;;
19219;SDS011;9744;49.364;7.484;2023-05-31T08:22:00;6.20;;;2.00;;
19219;SDS011;9744;49.364;7.484;2023-05-31T08:24:27;11.00;;;2.50;;
19219;SDS011;9744;49.364;7.484;2023-05-31T08:26:54;8.38;;;2.00;;
19219;SDS011;9744;49.364;7.484;2023-05-31T08:29:23;5.00;;;1.85;;
19219;SDS011;9744;49.364;7.484;2023-05-31T08:31:51;8.40;;;2.00;;
19219;SDS011;9744;49.364;7.484;2023-05-31T08:34:18;5.22;;;2.00;;
19219;SDS011;9744;49.364;7.484;2023-05-31T08:36:45;7.57;;;2.05;;
19219;SDS011;9744;49.364;7.484;2023-05-31T08:39:14;6.30;;;2.00;;
19219;SDS011;9744;49.364;7.484;2023-05-31T08:41:44;4.93;;;1.80;;
19219;SDS011;9744;49.364;7.484;2023-05-31T08:44:16;6.88;;;2.28;;
19219;SDS011;9744;49.364;7.484;2023-05-31T08:46:46;6.47;;;1.98;;
19219;SDS011;9744;49.364;7.484;2023-05-31T08:49:14;10.32;;;2.20;;
19219;SDS011;9744;49.364;7.484;2023-05-31T08:51:43;5.07;;;1.80;;
19219;SDS011;9744;49.364;7.484;2023-05-31T08:54:12;7.78;;;1.80;;
19219;SDS011;9744;49.364;7.484;2023-05-31T08:56:41;6.00;;;2.25;;
19219;SDS011;9744;49.364;7.484;2023-05-31T08:59:11;6.50;;;1.50;;
19219;SDS011;9744;49.364;7.484;2023-05-31T09:01:41;9.18;;;2.03;;
19219;SDS011;9744;49.364;7.484;2023-05-31T09:04:09;11.07;;;2.35;;
19219;SDS011;9744;49.364;7.484;2023-05-31T09:06:37;9.57;;;2.03;;
19219;SDS011;9744;49.364;7.484;2023-05-31T09:09:05;6.60;;;2.05;;
19219;SDS011;9744;49.364;7.484;2023-05-31T09:11:34;5.88;;;2.05;;
19219;SDS011;9744;49.364;7.484;2023-05-31T09:14:04;8.43;;;1.92;;
19219;SDS011;9744;49.364;7.484;2023-05-31T09:16:31;7.97;;;2.15;;
19219;SDS011;9744;49.364;7.484;2023-05-31T09:18:59;4.80;;;1.85;;
19219;SDS011;9744;49.364;7.484;2023-05-31T09:21:28;7.82;;;1.90;;
19219;SDS011;9744;49.364;7.484;2023-05-31T09:23:55;7.25;;;2.10;;
19219;SDS011;9744;49.364;7.484;2023-05-31T09:26:25;6.00;;;1.92;;
19219;SDS011;9744;49.364;7.484;2023-05-31T09:28:54;8.43;;;2.25;;
19219;SDS011;9744;49.364;7.484;2023-05-31T09:31:23;5.38;;;1.70;;
19219;SDS011;9744;49.364;7.484;2023-05-31T09:33:51;7.57;;;1.90;;
19219;SDS011;9744;49.364;7.484;2023-05-31T09:36:23;6.07;;;2.33;;
19219;SDS011;9744;49.364;7.484;2023-05-31T09:38:58;6.03;;;1.77;;
19219;SDS011;9744;49.364;7.484;2023-05-31T09:41:28;7.45;;;2.03;;
19219;SDS011;9744;49.364;7.484;2023-05-31T09:43:55;5.20;;;1.58;;
19219;SDS011;9744;49.364;7.484;2023-05-31T09:46:24;6.93;;;2.05;;
19219;SDS011;9744;49.364;7.484;2023-05-31T09:48:58;5.57;;;1.80;;
19219;SDS011;9744;49.364;7.484;2023-05-31T09:51:27;5.78;;;1.85;;
19219;SDS011;9744;49.364;7.484;2023-05-31T09:53:55;12.75;;;1.50;;
19219;SDS011;9744;49.364;7.484;2023-05-31T09:56:24;8.63;;;1.83;;
19219;SDS011;9744;49.364;7.484;2023-05-31T09:58:55;5.95;;;1.90;;
19219;SDS011;9744;49.364;7.484;2023-05-31T10:01:24;4.97;;;1.75;;
19219;SDS011;9744;49.364;7.484;2023-05-31T10:03:52;4.35;;;2.13;;
19219;SDS011;9744;49.364;7.484;2023-05-31T10:06:20;3.78;;;1.60;;
19219;SDS011;9744;49.364;7.484;2023-05-31T10:08:47;7.45;;;2.25;;
19219;SDS011;9744;49.364;7.484;2023-05-31T10:11:16;5.65;;;1.73;;
19219;SDS011;9744;49.364;7.484;2023-05-31T10:13:47;3.13;;;1.48;;
19219;SDS011;9744;49.364;7.484;2023-05-31T10:16:16;7.10;;;1.98;;
19219;SDS011;9744;49.364;7.484;2023-05-31T10:18:48;4.20;;;1.55;;
19219;SDS011;9744;49.364;7.484;2023-05-31T10:21:20;7.10;;;2.03;;
19219;SDS011;9744;49.364;7.484;2023-05-31T10:23:57;6.32;;;1.80;;
19219;SDS011;9744;49.364;7.484;2023-05-31T10:26:31;14.20;;;1.50;;
19219;SDS011;9744;49.364;7.484;2023-05-31T10:29:05;3.47;;;1.50;;
19219;SDS011;9744;49.364;7.484;2023-05-31T10:31:40;7.13;;;1.50;;
19219;SDS011;9744;49.364;7.484;2023-05-31T10:34:16;6.25;;;1.98;;
19219;SDS011;9744;49.364;7.484;2023-05-31T10:36:46;5.90;;;1.80;;
19219;SDS011;9744;49.364;7.484;2023-05-31T10:39:15;7.82;;;1.63;;
19219;SDS011;9744;49.364;7.484;2023-05-31T10:41:49;8.95;;;1.90;;
19219;SDS011;9744;49.364;7.484;2023-05-31T10:44:25;10.73;;;2.60;;
19219;SDS011;9744;49.364;7.484;2023-05-31T10:47:00;5.70;;;2.05;;
19219;SDS011;9744;49.364;7.484;2023-05-31T10:49:34;7.85;;;2.13;;
19219;SDS011;9744;49.364;7.484;2023-05-31T10:52:06;4.70;;;2.00;;
19219;SDS011;9744;49.364;7.484;2023-05-31T10:54:35;5.45;;;2.08;;
19219;SDS011;9744;49.364;7.484;2023-05-31T10:57:05;4.72;;;1.73;;
19219;SDS011;9744;49.364;7.484;2023-05-31T10:59:39;3.78;;;1.80;;
19219;SDS011;9744;49.364;7.484;2023-05-31T11:02:08;9.25;;;1.70;;
19219;SDS011;9744;49.364;7.484;2023-05-31T11:04:38;6.47;;;1.55;;
19219;SDS011;9744;49.364;7.484;2023-05-31T11:07:14;9.63;;;1.70;;
19219;SDS011;9744;49.364;7.484;2023-05-31T11:09:55;4.75;;;1.80;;
19219;SDS011;9744;49.364;7.484;2023-05-31T11:12:32;6.32;;;1.73;;
19219;SDS011;9744;49.364;7.484;2023-05-31T11:15:00;5.35;;;1.60;;
19219;SDS011;9744;49.364;7.484;2023-05-31T11:17:38;4.03;;;1.73;;
19219;SDS011;9744;49.364;7.484;2023-05-31T11:20:08;4.95;;;2.50;;
19219;SDS011;9744;49.364;7.484;2023-05-31T11:22:42;6.47;;;2.45;;
19219;SDS011;9744;49.364;7.484;2023-05-31T11:25:11;4.10;;;2.10;;
19219;SDS011;9744;49.364;7.484;2023-05-31T11:27:47;11.43;;;1.65;;
19219;SDS011;9744;49.364;7.484;2023-05-31T11:30:14;6.10;;;1.73;;
19219;SDS011;9744;49.364;7.484;2023-05-31T11:32:55;4.53;;;1.73;;
19219;SDS011;9744;49.364;7.484;2023-05-31T11:35:25;6.00;;;1.73;;
19219;SDS011;9744;49.364;7.484;2023-05-31T11:38:00;5.25;;;1.50;;
19219;SDS011;9744;49.364;7.484;2023-05-31T11:40:32;6.35;;;2.15;;
19219;SDS011;9744;49.364;7.484;2023-05-31T11:43:07;8.68;;;2.08;;
19219;SDS011;9744;49.364;7.484;2023-05-31T11:45:46;7.70;;;2.53;;
19219;SDS011;9744;49.364;7.484;2023-05-31T11:48:28;8.52;;;2.47;;
19219;SDS011;9744;49.364;7.484;2023-05-31T11:51:02;7.03;;;1.85;;
19219;SDS011;9744;49.364;7.484;2023-05-31T11:53:30;8.82;;;1.83;;
19219;SDS011;9744;49.364;7.484;2023-05-31T11:55:58;5.70;;;1.33;;
19219;SDS011;9744;49.364;7.484;2023-05-31T11:58:25;5.18;;;1.77;;
19219;SDS011;9744;49.364;7.484;2023-05-31T12:00:57;6.40;;;1.48;;
19219;SDS011;9744;49.364;7.484;2023-05-31T12:03:25;6.15;;;1.40;;
19219;SDS011;9744;49.364;7.484;2023-05-31T12:05:56;5.25;;;1.58;;
19219;SDS011;9744;49.364;7.484;2023-05-31T12:08:27;2.70;;;1.30;;
19219;SDS011;9744;49.364;7.484;2023-05-31T12:11:00;7.30;;;1.30;;
19219;SDS011;9744;49.364;7.484;2023-05-31T12:13:29;4.65;;;1.45;;
19219;SDS011;9744;49.364;7.484;2023-05-31T12:15:56;7.28;;;1.52;;
19219;SDS011;9744;49.364;7.484;2023-05-31T12:18:23;5.28;;;1.50;;
19219;SDS011;9744;49.364;7.484;2023-05-31T12:20:50;2.85;;;1.17;;
19219;SDS011;9744;49.364;7.484;2023-05-31T12:23:18;4.22;;;1.98;;
19219;SDS011;9744;49.364;7.484;2023-05-31T12:25:47;4.57;;;1.77;;
19219;SDS011;9744;49.364;7.484;2023-05-31T12:28:18;7.93;;;1.95;;
19219;SDS011;9744;49.364;7.484;2023-05-31T12:30:47;6.65;;;1.88;;
19219;SDS011;9744;49.364;7.484;2023-05-31T12:33:16;4.20;;;1.52;;
19219;SDS011;9744;49.364;7.484;2023-05-31T12:35:44;6.97;;;1.48;;
19219;SDS011;9744;49.364;7.484;2023-05-31T12:38:12;6.18;;;1.50;;
19219;SDS011;9744;49.364;7.484;2023-05-31T12:40:43;7.43;;;1.63;;
19219;SDS011;9744;49.364;7.484;2023-05-31T12:43:12;3.88;;;1.45;;
19219;SDS011;9744;49.364;7.484;2023-05-31T12:45:41;3.22;;;1.50;;
19219;SDS011;9744;49.364;7.484;2023-05-31T12:48:08;5.75;;;1.77;;
19219;SDS011;9744;49.364;7.484;2023-05-31T12:50:37;8.35;;;1.75;;
19219;SDS011;9744;49.364;7.484;2023-05-31T12:53:09;7.72;;;2.00;;
19219;SDS011;9744;49.364;7.484;2023-05-31T12:55:37;2.75;;;1.17;;
19219;SDS011;9744;49.364;7.484;2023-05-31T12:58:04;2.78;;;1.30;;
19219;SDS011;9744;49.364;7.484;2023-05-31T13:00:33;3.83;;;1.40;;
19219;SDS011;9744;49.364;7.484;2023-05-31T13:03:03;7.65;;;1.40;;
19219;SDS011;9744;49.364;7.484;2023-05-31T13:05:32;2.13;;;1.10;;
19219;SDS011;9744;49.364;7.484;2023-05-31T13:07:59;4.57;;;1.55;;
19219;SDS011;9744;49.364;7.484;2023-05-31T13:10:26;6.00;;;1.40;;
19219;SDS011;9744;49.364;7.484;2023-05-31T13:12:56;8.80;;;1.50;;
19219;SDS011;9744;49.364;7.484;2023-05-31T13:15:24;4.18;;;1.08;;
19219;SDS011;9744;49.364;7.484;2023-05-31T13:17:52;3.88;;;1.33;;
19219;SDS011;9744;49.364;7.484;2023-05-31T13:20:20;10.15;;;1.20;;
19219;SDS011;9744;49.364;7.484;2023-05-31T13:22:47;7.80;;;1.40;;
19219;SDS011;9744;49.364;7.484;2023-05-31T13:25:14;2.80;;;2.13;;
19219;SDS011;9744;49.364;7.484;2023-05-31T13:27:41;6.45;;;1.95;;
19219;SDS011;9744;49.364;7.484;2023-05-31T13:30:09;8.30;;;2.22;;
19219;SDS011;9744;49.364;7.484;2023-05-31T13:32:37;5.38;;;1.60;;
19219;SDS011;9744;49.364;7.484;2023-05-31T13:35:06;3.28;;;1.30;;
19219;SDS011;9744;49.364;7.484;2023-05-31T13:37:35;4.13;;;1.42;;
19219;SDS011;9744;49.364;7.484;2023-05-31T13:40:02;4.82;;;1.73;;
19219;SDS011;9744;49.364;7.484;2023-05-31T13:42:30;5.93;;;1.83;;
19219;SDS011;9744;49.364;7.484;2023-05-31T13:44:57;3.90;;;1.60;;
19219;SDS011;9744;49.364;7.484;2023-05-31T13:47:24;8.65;;;1.52;;
19219;SDS011;9744;49.364;7.484;2023-05-31T13:49:52;4.82;;;1.75;;
19219;SDS011;9744;49.364;7.484;2023-05-31T13:54:49;5.60;;;1.50;;
19219;SDS011;9744;49.364;7.484;2023-05-31T13:57:16;9.13;;;1.38;;
19219;SDS011;9744;49.364;7.484;2023-05-31T13:59:43;7.35;;;1.80;;
19219;SDS011;9744;49.364;7.484;2023-05-31T14:02:11;4.78;;;1.30;;
19219;SDS011;9744;49.364;7.484;2023-05-31T14:04:38;7.93;;;1.58;;
19219;SDS011;9744;49.364;7.484;2023-05-31T14:07:05;3.85;;;1.20;;
19219;SDS011;9744;49.364;7.484;2023-05-31T14:09:34;3.90;;;1.17;;
19219;SDS011;9744;49.364;7.484;2023-05-31T14:12:01;1.42;;;1.00;;
19219;SDS011;9744;49.364;7.484;2023-05-31T14:14:28;4.43;;;1.33;;
19219;SDS011;9744;49.364;7.484;2023-05-31T14:16:56;5.90;;;1.85;;
19219;SDS011;9744;49.364;7.484;2023-05-31T14:19:25;8.23;;;1.23;;
19219;SDS011;9744;49.364;7.484;2023-05-31T14:21:52;4.10;;;1.30;;
19219;SDS011;9744;49.364;7.484;2023-05-31T14:24:20;4.00;;;1.20;;
19219;SDS011;9744;49.364;7.484;2023-05-31T14:26:49;5.97;;;1.38;;
19219;SDS011;9744;49.364;7.484;2023-05-31T14:29:18;4.88;;;1.30;;
19219;SDS011;9744;49.364;7.484;2023-05-31T14:31:45;6.50;;;1.70;;
19219;SDS011;9744;49.364;7.484;2023-05-31T14:34:12;5.63;;;1.67;;
19219;SDS011;9744;49.364;7.484;2023-05-31T14:36:40;11.27;;;2.03;;
19219;SDS011;9744;49.364;7.484;2023-05-31T14:39:08;4.07;;;1.42;;
19219;SDS011;9744;49.364;7.484;2023-05-31T14:41:35;3.20;;;1.10;;
19219;SDS011;9744;49.364;7.484;2023-05-31T14:44:04;5.60;;;1.50;;
19219;SDS011;9744;49.364;7.484;2023-05-31T14:46:31;4.13;;;1.23;;
19219;SDS011;9744;49.364;7.484;2023-05-31T14:48:58;7.00;;;1.73;;
19219;SDS011;9744;49.364;7.484;2023-05-31T14:51:25;4.60;;;1.38;;
19219;SDS011;9744;49.364;7.484;2023-05-31T14:53:55;4.85;;;1.25;;
19219;SDS011;9744;49.364;7.484;2023-05-31T14:56:23;4.10;;;1.20;;
19219;SDS011;9744;49.364;7.484;2023-05-31T14:58:51;3.55;;;1.33;;
19219;SDS011;9744;49.364;7.484;2023-05-31T15:01:20;3.67;;;1.13;;
19219;SDS011;9744;49.364;7.484;2023-05-31T15:03:47;6.72;;;1.13;;
19219;SDS011;9744;49.364;7.484;2023-05-31T15:06:15;2.72;;;1.17;;
19219;SDS011;9744;49.364;7.484;2023-05-31T15:08:42;7.50;;;1.17;;
19219;SDS011;9744;49.364;7.484;2023-05-31T15:11:10;5.07;;;1.15;;
19219;SDS011;9744;49.364;7.484;2023-05-31T15:13:37;4.50;;;0.93;;
19219;SDS011;9744;49.364;7.484;2023-05-31T15:16:04;3.45;;;1.40;;
19219;SDS011;9744;49.364;7.484;2023-05-31T15:18:33;2.00;;;1.20;;
19219;SDS011;9744;49.364;7.484;2023-05-31T15:21:00;5.38;;;1.20;;
19219;SDS011;9744;49.364;7.484;2023-05-31T15:23:27;7.40;;;1.85;;
19219;SDS011;9744;49.364;7.484;2023-05-31T15:25:54;2.75;;;1.30;;
19219;SDS011;9744;49.364;7.484;2023-05-31T15:28:22;2.90;;;0.98;;
19219;SDS011;9744;49.364;7.484;2023-05-31T15:30:49;2.42;;;1.20;;
19219;SDS011;9744;49.364;7.484;2023-05-31T15:33:17;2.33;;;1.17;;
19219;SDS011;9744;49.364;7.484;2023-05-31T15:35:46;1.95;;;0.90;;
19219;SDS011;9744;49.364;7.484;2023-05-31T15:38:13;5.50;;;1.30;;
19219;SDS011;9744;49.364;7.484;2023-05-31T15:40:40;1.83;;;1.00;;
19219;SDS011;9744;49.364;7.484;2023-05-31T15:43:07;3.63;;;1.10;;
19219;SDS011;9744;49.364;7.484;2023-05-31T15:45:34;2.38;;;1.20;;
19219;SDS011;9744;49.364;7.484;2023-05-31T15:48:02;3.67;;;1.23;;
19219;SDS011;9744;49.364;7.484;2023-05-31T15:50:29;4.85;;;1.08;;
19219;SDS011;9744;49.364;7.484;2023-05-31T15:52:58;2.15;;;1.30;;
19219;SDS011;9744;49.364;7.484;2023-05-31T15:55:25;6.78;;;1.17;;
19219;SDS011;9744;49.364;7.484;2023-05-31T15:57:54;4.57;;;1.20;;
19219;SDS011;9744;49.364;7.484;2023-05-31T16:00:21;3.55;;;1.50;;
19219;SDS011;9744;49.364;7.484;2023-05-31T16:02:49;2.88;;;1.40;;
19219;SDS011;9744;49.364;7.484;2023-05-31T16:05:16;10.50;;;1.40;;
19219;SDS011;9744;49.364;7.484;2023-05-31T16:07:43;4.40;;;0.98;;
19219;SDS011;9744;49.364;7.484;2023-05-31T16:10:12;3.95;;;1.23;;
19219;SDS011;9744;49.364;7.484;2023-05-31T16:12:39;2.65;;;1.48;;
19219;SDS011;9744;49.364;7.484;2023-05-31T16:15:07;3.88;;;1.60;;